Time;durP1;ratioP1;P1;durP2;ratioP2;P2;SDS_P1;SDS_P2;PMS_P1;PMS_P2;Temp;Humidity;BMP_temperature;BMP_pressure;BME280_temperature;BME280_humidity;BME280_pressure;Samples;Min_cycle;Max_cycle;Signal;HPM_P1;HPM_P2
2024/01/18 00:02:16;;;;;;;59.53;31.02;;;;;;;2.10;77.28;94119.28;5106677;27;20027;-67
2024/01/18 00:04:42;;;;;;;68.38;32.90;;;;;;;2.08;76.83;94126.25;5109911;28;20496;-68
2024/01/18 00:07:07;;;;;;;60.15;32.83;;;;;;;2.30;75.82;94127.50;5110279;28;20080;-68
2024/01/18 00:09:33;;;;;;;52.35;27.35;;;;;;;2.05;75.92;94115.38;5118803;28;20024;-68
2024/01/18 00:11:58;;;;;;;42.63;23.67;;;;;;;2.10;75.89;94118.47;5095329;28;20440;-68
2024/01/18 00:14:23;;;;;;;39.25;21.63;;;;;;;1.88;76.33;94065.16;5096457;28;20641;-67
2024/01/18 00:16:49;;;;;;;37.30;21.15;;;;;;;1.75;77.14;94106.84;5078179;28;20028;-68
2024/01/18 00:19:14;;;;;;;31.08;19.77;;;;;;;1.94;76.96;94057.09;5108044;28;20028;-67
2024/01/18 00:21:40;;;;;;;30.88;18.25;;;;;;;2.02;76.57;94080.50;5109848;28;20035;-68
2024/01/18 00:24:06;;;;;;;30.50;17.55;;;;;;;1.84;77.13;94091.84;5110925;28;20414;-68
2024/01/18 00:26:31;;;;;;;31.40;17.70;;;;;;;2.07;76.64;94104.13;5110533;28;20119;-68
2024/01/18 00:28:57;;;;;;;30.95;17.70;;;;;;;2.08;77.30;94090.38;5127420;28;20034;-69
2024/01/18 00:31:23;;;;;;;39.83;20.05;;;;;;;2.01;77.62;94099.38;5131708;27;20032;-68
2024/01/18 00:33:48;;;;;;;33.38;18.33;;;;;;;1.96;77.11;94078.31;5130040;28;20015;-69
2024/01/18 00:36:14;;;;;;;34.58;18.42;;;;;;;1.95;77.69;94097.16;5127461;28;20118;-68
2024/01/18 00:38:39;;;;;;;30.48;17.45;;;;;;;2.13;76.74;94090.09;5117774;27;20031;-67
2024/01/18 00:41:04;;;;;;;30.23;17.92;;;;;;;2.15;76.74;94091.66;5113180;28;20039;-68
2024/01/18 00:43:30;;;;;;;34.53;19.73;;;;;;;2.18;76.97;94081.22;5114556;28;20023;-68
2024/01/18 00:45:55;;;;;;;30.42;19.55;;;;;;;2.23;76.15;94079.19;5116583;27;20035;-67
2024/01/18 00:48:21;;;;;;;35.50;20.73;;;;;;;2.39;75.44;94067.97;5113995;28;20445;-68
2024/01/18 00:50:46;;;;;;;36.53;20.45;;;;;;;2.12;76.63;94071.34;5113154;28;20043;-68
2024/01/18 00:53:11;;;;;;;34.38;20.05;;;;;;;2.13;76.99;94059.34;5113067;28;20028;-67
2024/01/18 00:55:37;;;;;;;37.67;19.65;;;;;;;2.19;77.06;94057.22;5111239;27;20031;-67
2024/01/18 00:58:02;;;;;;;37.97;21.67;;;;;;;2.26;76.89;94061.97;5075899;28;20040;-67
2024/01/18 01:00:28;;;;;;;35.03;20.38;;;;;;;2.37;76.79;94068.09;5107537;28;20124;-68
2024/01/18 01:02:53;;;;;;;34.33;19.25;;;;;;;1.99;77.00;94019.22;5114172;28;20114;-66
2024/01/18 01:05:19;;;;;;;32.00;18.13;;;;;;;2.34;76.38;94045.22;5095667;28;20040;-68
2024/01/18 01:07:44;;;;;;;28.92;18.25;;;;;;;2.54;75.90;94054.19;5106201;28;20035;-68
2024/01/18 01:10:10;;;;;;;30.27;18.80;;;;;;;2.56;75.70;94043.84;5095713;28;20035;-68
2024/01/18 01:12:35;;;;;;;31.52;17.70;;;;;;;2.50;75.68;94042.47;5098588;27;20035;-67
2024/01/18 01:15:00;;;;;;;32.00;17.63;;;;;;;2.44;75.75;94040.31;5133117;27;20440;-68
2024/01/18 01:17:26;;;;;;;29.92;17.52;;;;;;;2.41;76.03;94022.56;5134319;27;20454;-68
2024/01/18 01:19:51;;;;;;;29.80;18.52;;;;;;;2.36;76.16;94039.97;5133075;27;20023;-69
2024/01/18 01:22:17;;;;;;;32.85;17.92;;;;;;;2.44;76.50;94035.19;5126483;27;20031;-68
2024/01/18 01:24:42;;;;;;;31.58;18.15;;;;;;;2.21;76.82;94026.38;5095322;28;20413;-69
2024/01/18 01:27:08;;;;;;;28.08;16.52;;;;;;;2.36;77.01;94020.28;5078374;28;20090;-69
2024/01/18 01:29:34;;;;;;;30.55;16.35;;;;;;;2.34;77.21;93998.22;5113628;28;20057;-70
2024/01/18 01:31:59;;;;;;;27.70;16.65;;;;;;;2.52;76.73;94011.63;5109154;27;20030;-68
2024/01/18 01:34:25;;;;;;;32.33;18.17;;;;;;;2.37;76.78;93985.25;5115598;27;20027;-68
2024/01/18 01:36:51;;;;;;;32.38;20.67;;;;;;;2.54;76.59;93984.97;5127958;27;20047;-68
2024/01/18 01:39:17;;;;;;;25.40;15.27;;;;;;;2.61;76.81;93970.00;5093952;28;20111;-68
2024/01/18 01:41:42;;;;;;;26.70;14.90;;;;;;;2.59;76.65;93965.00;5134284;27;20065;-68
2024/01/18 01:44:08;;;;;;;28.35;16.27;;;;;;;2.77;76.49;93972.41;5132668;27;20038;-68
2024/01/18 01:46:33;;;;;;;26.77;15.93;;;;;;;2.79;76.36;93978.25;5134181;27;20080;-68
2024/01/18 01:49:03;;;;;;;33.28;19.58;;;;;;;2.83;76.22;93988.19;5129667;27;20035;-68
2024/01/18 01:51:36;;;;;;;32.40;20.05;;;;;;;2.74;76.81;94003.38;5132616;27;20054;-68
2024/01/18 01:54:02;;;;;;;35.75;19.77;;;;;;;2.81;76.99;93999.47;5115475;27;20038;-68
2024/01/18 01:56:28;;;;;;;34.45;20.15;;;;;;;2.57;77.40;93974.50;5132521;27;20031;-68
2024/01/18 01:58:53;;;;;;;28.70;16.75;;;;;;;2.78;77.72;93982.53;5108910;28;20077;-67
2024/01/18 02:01:19;;;;;;;30.67;18.35;;;;;;;2.53;78.07;93967.09;5113224;28;20509;-68
2024/01/18 02:03:44;;;;;;;29.05;17.35;;;;;;;2.64;78.51;93954.41;5094808;28;20451;-67
2024/01/18 02:06:09;;;;;;;32.38;18.48;;;;;;;2.56;78.97;93962.59;5094571;28;20040;-68
2024/01/18 02:08:35;;;;;;;30.63;18.35;;;;;;;2.51;78.71;93968.94;5111247;27;20389;-67
2024/01/18 02:11:01;;;;;;;29.65;17.90;;;;;;;2.78;78.96;93967.16;5133533;27;20028;-68
2024/01/18 02:13:26;;;;;;;30.70;19.05;;;;;;;2.55;79.43;93955.84;5114983;27;20035;-67
2024/01/18 02:15:52;;;;;;;33.33;19.27;;;;;;;2.66;79.93;93967.97;5112251;27;20044;-68
2024/01/18 02:18:17;;;;;;;27.73;18.08;;;;;;;2.55;81.25;93966.09;5115780;27;20497;-67
2024/01/18 02:20:43;;;;;;;32.70;18.88;;;;;;;2.61;81.57;93977.69;5112796;28;20039;-68
2024/01/18 02:23:08;;;;;;;34.40;20.90;;;;;;;2.57;81.39;93981.38;5112331;28;20022;-68
2024/01/18 02:25:34;;;;;;;34.85;20.25;;;;;;;2.64;81.29;93972.34;5117890;27;20035;-67
2024/01/18 02:27:59;;;;;;;30.23;17.92;;;;;;;2.59;80.99;93959.00;5108672;28;20035;-68
2024/01/18 02:30:24;;;;;;;29.55;18.25;;;;;;;2.58;81.46;93963.31;5112078;28;20035;-67
2024/01/18 02:32:50;;;;;;;29.25;17.75;;;;;;;2.64;80.96;93957.78;5094130;28;20023;-67
2024/01/18 02:35:16;;;;;;;29.48;19.17;;;;;;;2.65;81.34;93959.44;5096166;28;20134;-68
2024/01/18 02:37:41;;;;;;;33.58;18.50;;;;;;;2.53;82.00;93972.22;5111110;28;20028;-68
2024/01/18 02:40:07;;;;;;;28.73;17.73;;;;;;;2.52;82.28;93961.16;5111031;28;20092;-67
2024/01/18 02:42:32;;;;;;;32.35;17.48;;;;;;;2.52;83.35;93950.91;5094052;28;20409;-67
2024/01/18 02:44:58;;;;;;;27.42;17.58;;;;;;;2.42;84.06;93939.59;5098562;28;20024;-67
2024/01/18 02:47:26;;;;;;;27.48;17.33;;;;;;;2.26;84.08;93926.97;5093859;28;20057;-67
2024/01/18 02:49:51;;;;;;;24.60;16.30;;;;;;;2.22;83.89;93887.88;5093827;28;20024;-67
2024/01/18 02:52:18;;;;;;;30.27;16.55;;;;;;;2.30;83.81;93914.78;5113234;27;20034;-67
2024/01/18 02:54:43;;;;;;;28.85;15.85;;;;;;;2.33;84.35;93920.50;5110230;28;20047;-67
2024/01/18 02:57:08;;;;;;;28.52;17.17;;;;;;;1.99;85.53;93921.84;5110477;28;20416;-67
2024/01/18 02:59:34;;;;;;;25.08;16.38;;;;;;;1.95;85.12;93903.31;5109732;28;20019;-67
2024/01/18 03:01:59;;;;;;;25.38;15.02;;;;;;;2.15;86.09;93906.34;5119971;27;20046;-67
2024/01/18 03:04:24;;;;;;;21.63;14.10;;;;;;;2.20;86.31;93928.19;5131075;27;20034;-67
2024/01/18 03:06:50;;;;;;;28.15;16.25;;;;;;;2.19;85.76;93930.84;5111863;27;20024;-67
2024/01/18 03:09:15;;;;;;;26.98;15.82;;;;;;;2.33;85.84;93940.19;5110552;28;20024;-67
2024/01/18 03:11:41;;;;;;;24.33;15.25;;;;;;;1.94;86.12;93944.38;5124996;27;20031;-67
2024/01/18 03:14:06;;;;;;;24.40;15.68;;;;;;;1.97;85.65;93933.94;5113690;27;20031;-67
2024/01/18 03:16:32;;;;;;;24.95;16.40;;;;;;;1.79;86.61;93933.38;5119743;27;20040;-67
2024/01/18 03:18:57;;;;;;;35.35;19.38;;;;;;;1.86;85.75;93896.19;5092638;28;20028;-67
2024/01/18 03:21:23;;;;;;;28.67;16.67;;;;;;;1.71;86.21;93903.09;5131179;27;20039;-67
2024/01/18 03:23:48;;;;;;;24.52;16.00;;;;;;;2.03;85.41;93922.47;5118931;27;20028;-67
2024/01/18 03:26:14;;;;;;;26.25;16.02;;;;;;;2.10;85.48;93934.81;5092936;28;20035;-68
2024/01/18 03:28:39;;;;;;;25.77;15.30;;;;;;;2.17;84.89;93948.88;5114707;27;20027;-68
2024/01/18 03:31:04;;;;;;;24.90;16.20;;;;;;;2.22;85.34;93939.13;5131834;27;20710;-67
2024/01/18 03:33:30;;;;;;;25.23;15.95;;;;;;;1.95;85.42;93920.41;5130690;27;20019;-67
2024/01/18 03:35:57;;;;;;;25.80;16.58;;;;;;;1.85;85.68;93917.59;5117174;27;20062;-67
2024/01/18 03:38:22;;;;;;;26.85;16.13;;;;;;;1.76;86.04;93929.25;5102807;28;20023;-67
2024/01/18 03:40:48;;;;;;;25.90;16.67;;;;;;;2.03;85.66;93927.59;5129194;27;20035;-68
2024/01/18 03:43:14;;;;;;;26.00;15.57;;;;;;;1.91;85.63;93953.06;5111301;28;20032;-68
2024/01/18 03:45:39;;;;;;;28.90;18.80;;;;;;;1.98;85.93;93936.41;5111559;28;20028;-67
2024/01/18 03:48:04;;;;;;;34.42;18.45;;;;;;;1.93;86.34;93947.88;5124455;28;20019;-67
2024/01/18 03:50:30;;;;;;;30.33;19.55;;;;;;;1.88;85.97;93908.91;5119186;27;20379;-68
2024/01/18 03:52:55;;;;;;;28.92;18.25;;;;;;;1.89;86.26;93913.09;5111257;28;20024;-67
2024/01/18 03:55:21;;;;;;;28.25;18.52;;;;;;;1.97;85.93;93905.75;5091891;28;20040;-67
2024/01/18 03:57:46;;;;;;;26.55;18.77;;;;;;;1.96;86.03;93915.19;5130494;28;20493;-67
2024/01/18 04:00:12;;;;;;;30.20;17.55;;;;;;;1.94;85.55;93906.78;5113918;27;20032;-67
2024/01/18 04:02:38;;;;;;;28.10;16.48;;;;;;;1.90;86.03;93904.53;5092509;28;20047;-68
2024/01/18 04:05:04;;;;;;;26.33;17.73;;;;;;;1.93;86.08;93907.69;5109685;28;20038;-67
2024/01/18 04:07:30;;;;;;;26.92;17.35;;;;;;;1.98;85.58;93908.22;5109690;28;20026;-67
2024/01/18 04:09:56;;;;;;;25.00;15.85;;;;;;;1.96;85.32;93910.06;5110813;28;20031;-67
2024/01/18 04:12:22;;;;;;;21.83;14.85;;;;;;;1.97;85.60;93919.38;5102494;28;20019;-67
2024/01/18 04:14:47;;;;;;;23.70;14.68;;;;;;;2.00;85.45;93915.81;5106760;27;20089;-67
2024/01/18 04:17:13;;;;;;;21.17;13.95;;;;;;;1.90;85.96;93889.16;5074575;28;20512;-67
2024/01/18 04:19:41;;;;;;;22.08;13.73;;;;;;;1.87;85.96;93902.97;5091231;28;20024;-67
2024/01/18 04:22:07;;;;;;;20.65;14.00;;;;;;;1.92;86.40;93912.91;5109766;28;20039;-68
2024/01/18 04:24:32;;;;;;;23.20;15.77;;;;;;;1.99;85.72;93926.97;5098284;27;20034;-67
2024/01/18 04:26:58;;;;;;;21.00;14.80;;;;;;;1.97;86.39;93939.88;5087093;28;20050;-67
2024/01/18 04:29:23;;;;;;;22.33;14.20;;;;;;;1.99;85.98;93952.59;5103098;28;20452;-67
2024/01/18 04:31:49;;;;;;;21.40;13.80;;;;;;;2.07;86.26;93947.00;5095708;28;20440;-67
2024/01/18 04:34:14;;;;;;;21.67;13.60;;;;;;;2.08;85.40;93941.75;5109699;28;20056;-67
2024/01/18 04:36:40;;;;;;;18.52;13.52;;;;;;;2.19;85.20;93953.91;5108583;28;20051;-68
2024/01/18 04:39:05;;;;;;;20.60;12.30;;;;;;;2.21;84.48;93950.31;5092572;28;20194;-69
2024/01/18 04:41:31;;;;;;;20.30;13.45;;;;;;;2.21;84.66;93955.44;5107393;28;20032;-68
2024/01/18 04:43:57;;;;;;;20.80;12.98;;;;;;;2.11;84.81;93946.69;5093594;28;20106;-69
2024/01/18 04:46:23;;;;;;;19.30;12.60;;;;;;;2.20;84.66;93923.06;5086794;28;20043;-68
2024/01/18 04:48:48;;;;;;;20.20;13.98;;;;;;;2.24;84.29;93918.56;5105448;28;20077;-68
2024/01/18 04:51:14;;;;;;;19.60;12.93;;;;;;;2.04;84.79;93919.00;5098076;28;20046;-68
2024/01/18 04:53:39;;;;;;;20.48;13.43;;;;;;;2.05;85.30;93930.91;5110435;28;20027;-67
2024/01/18 04:56:05;;;;;;;20.42;13.30;;;;;;;2.12;85.51;93927.84;5090188;27;20043;-67
2024/01/18 04:58:31;;;;;;;20.48;13.07;;;;;;;1.91;85.21;93867.72;5094285;28;20772;-69
2024/01/18 05:00:56;;;;;;;19.27;13.30;;;;;;;2.32;84.48;93923.19;5095513;28;20117;-66
2024/01/18 05:03:22;;;;;;;22.20;13.50;;;;;;;2.11;85.15;93904.88;5110411;28;20019;-66
2024/01/18 05:05:47;;;;;;;22.10;13.57;;;;;;;2.00;85.22;93892.75;5090761;28;20028;-67
2024/01/18 05:08:13;;;;;;;19.77;12.60;;;;;;;2.13;85.52;93893.63;5102827;28;20036;-66
2024/01/18 05:10:38;;;;;;;19.55;13.13;;;;;;;2.17;85.55;93896.78;5095090;28;20046;-67
2024/01/18 05:13:04;;;;;;;52.47;28.35;;;;;;;2.19;86.77;93895.78;5117289;27;20031;-66
2024/01/18 05:15:30;;;;;;;23.40;16.35;;;;;;;2.36;85.87;93896.41;5107703;28;20479;-67
2024/01/18 05:17:57;;;;;;;21.58;14.93;;;;;;;2.21;85.75;93909.31;5111143;27;20031;-66
2024/01/18 05:20:22;;;;;;;30.60;20.75;;;;;;;2.36;85.75;93915.19;5113004;27;20067;-66
2024/01/18 05:22:48;;;;;;;43.75;23.55;;;;;;;2.41;84.93;93907.19;5111184;28;20039;-67
2024/01/18 05:25:13;;;;;;;40.70;25.08;;;;;;;2.13;85.30;93918.41;5090382;28;20030;-66
2024/01/18 05:27:39;;;;;;;52.53;31.70;;;;;;;2.40;85.19;93949.16;5126680;27;20015;-67
2024/01/18 05:30:07;;;;;;;40.25;24.52;;;;;;;2.31;84.29;93958.22;5124444;27;20047;-66
2024/01/18 05:32:32;;;;;;;32.90;20.67;;;;;;;2.25;84.83;93943.25;5108714;27;20036;-67
2024/01/18 05:34:57;;;;;;;26.23;16.40;;;;;;;2.39;84.98;93938.06;5091421;28;20043;-66
2024/01/18 05:37:23;;;;;;;26.98;16.60;;;;;;;2.41;84.91;93958.47;5105608;27;20047;-67
2024/01/18 05:39:50;;;;;;;25.60;15.73;;;;;;;2.29;84.32;93931.09;5106673;28;20032;-67
2024/01/18 05:42:27;;;;;;;25.98;15.85;;;;;;;2.35;84.76;93938.38;5110399;28;20054;-67
2024/01/18 05:44:52;;;;;;;24.17;15.38;;;;;;;2.32;84.68;93941.13;5096258;28;20024;-67
2024/01/18 05:47:18;;;;;;;22.65;14.60;;;;;;;2.51;85.19;93939.03;5086143;28;20039;-66
2024/01/18 05:49:43;;;;;;;23.40;14.60;;;;;;;2.55;84.69;93935.31;5104720;28;20027;-67
2024/01/18 05:52:08;;;;;;;23.05;14.73;;;;;;;2.44;84.84;93917.25;5108042;28;20441;-66
2024/01/18 05:54:34;;;;;;;22.15;14.35;;;;;;;2.40;85.22;93947.41;5083453;28;20036;-66
2024/01/18 05:57:01;;;;;;;24.25;15.48;;;;;;;2.54;85.00;93946.50;5110097;28;20028;-67
2024/01/18 05:59:27;;;;;;;21.00;15.35;;;;;;;2.49;85.36;93934.91;5110033;28;20051;-67
2024/01/18 06:01:52;;;;;;;23.48;15.25;;;;;;;2.71;84.81;93958.22;5109832;28;20039;-67
2024/01/18 06:04:18;;;;;;;23.73;15.50;;;;;;;2.60;84.23;93929.91;5105852;28;20487;-66
2024/01/18 06:06:43;;;;;;;20.80;13.40;;;;;;;2.57;84.50;93946.31;5108226;28;20081;-66
2024/01/18 06:09:09;;;;;;;20.80;14.85;;;;;;;2.64;84.95;93951.84;5117475;27;20524;-65
2024/01/18 06:11:35;;;;;;;20.20;13.82;;;;;;;2.50;85.17;93941.66;5107023;27;20035;-68
2024/01/18 06:14:00;;;;;;;18.77;13.68;;;;;;;2.56;84.83;93977.16;5075252;28;20039;-68
2024/01/18 06:16:25;;;;;;;19.55;12.00;;;;;;;2.59;84.59;93949.59;5099532;27;20036;-66
2024/01/18 06:18:52;;;;;;;17.55;12.38;;;;;;;2.56;84.54;93951.53;5072573;28;20490;-66
2024/01/18 06:21:17;;;;;;;17.25;12.20;;;;;;;2.48;84.59;93959.72;5100392;27;20097;-66
2024/01/18 06:23:43;;;;;;;18.35;12.43;;;;;;;2.31;85.30;93963.34;5105926;27;20049;-66
2024/01/18 06:26:11;;;;;;;18.40;12.75;;;;;;;2.63;84.62;93963.84;5100680;28;20078;-66
2024/01/18 06:28:38;;;;;;;16.77;11.95;;;;;;;2.77;83.96;93947.56;5102697;28;20032;-66
2024/01/18 06:31:04;;;;;;;19.23;12.48;;;;;;;2.56;85.07;93949.78;5085405;28;20058;-66
2024/01/18 06:33:29;;;;;;;17.67;12.02;;;;;;;2.62;85.75;93954.53;5096679;27;20521;-66
2024/01/18 06:35:55;;;;;;;17.58;12.57;;;;;;;2.65;84.90;93938.94;5103316;28;20055;-67
2024/01/18 06:38:20;;;;;;;18.25;12.38;;;;;;;2.63;86.12;93945.91;5090499;28;20080;-66
2024/01/18 06:40:47;;;;;;;20.45;12.60;;;;;;;2.84;86.03;93959.06;5105171;28;20039;-66
2024/01/18 06:43:13;;;;;;;24.30;16.55;;;;;;;2.96;85.08;93948.91;5101120;27;20043;-67
2024/01/18 06:45:38;;;;;;;26.40;18.38;;;;;;;2.89;85.21;93923.63;5102597;28;20028;-66
2024/01/18 06:48:04;;;;;;;35.20;24.55;;;;;;;3.09;84.90;93930.03;5088455;28;20486;-66
2024/01/18 06:50:30;;;;;;;35.85;24.25;;;;;;;3.06;85.22;93924.25;5108270;28;20032;-66
2024/01/18 06:52:57;;;;;;;34.75;24.42;;;;;;;3.06;85.81;93935.34;5123899;27;20026;-66
2024/01/18 06:55:23;;;;;;;28.33;19.05;;;;;;;3.26;84.92;93938.31;5130991;27;20122;-66
2024/01/18 06:57:48;;;;;;;25.33;15.68;;;;;;;3.13;86.06;93915.22;5103308;27;20024;-66
2024/01/18 07:00:15;;;;;;;24.50;16.23;;;;;;;3.04;86.56;93937.22;5110396;28;20444;-66
2024/01/18 07:02:41;;;;;;;27.10;16.92;;;;;;;3.02;87.22;93939.06;5086449;28;20039;-67
2024/01/18 07:05:07;;;;;;;24.65;15.77;;;;;;;2.88;87.32;93918.63;5094052;28;20028;-66
2024/01/18 07:07:32;;;;;;;22.92;13.90;;;;;;;2.94;89.59;93915.66;5109853;28;20102;-67
2024/01/18 07:09:57;;;;;;;21.02;14.45;;;;;;;2.99;89.18;93923.06;5109472;28;20023;-66
2024/01/18 07:12:24;;;;;;;26.48;18.25;;;;;;;2.82;89.13;93909.59;5093498;28;20027;-66
2024/01/18 07:14:50;;;;;;;25.73;17.92;;;;;;;2.87;89.59;93910.13;5093721;28;20023;-66
2024/01/18 07:17:15;;;;;;;20.55;14.15;;;;;;;2.81;90.18;93884.03;5092590;28;20092;-67
2024/01/18 07:19:41;;;;;;;19.02;13.23;;;;;;;2.76;90.13;93891.22;5111531;28;20020;-67
2024/01/18 07:22:06;;;;;;;20.63;14.07;;;;;;;3.10;88.32;93872.63;5111493;28;20028;-68
2024/01/18 07:24:33;;;;;;;19.27;14.00;;;;;;;2.87;89.15;93873.34;5110355;28;20042;-67
2024/01/18 07:26:59;;;;;;;16.83;12.38;;;;;;;3.06;88.90;93857.53;5111621;28;20032;-67
2024/01/18 07:29:24;;;;;;;19.60;13.38;;;;;;;2.95;89.13;93844.63;5108254;28;20100;-67
2024/01/18 07:31:50;;;;;;;20.95;15.52;;;;;;;3.18;88.72;93825.91;5091086;28;20031;-67
2024/01/18 07:34:16;;;;;;;22.38;16.35;;;;;;;3.05;88.66;93822.56;5109622;28;20043;-68
2024/01/18 07:36:41;;;;;;;20.85;13.20;;;;;;;2.98;88.99;93809.34;5108045;28;20070;-67
2024/01/18 07:39:07;;;;;;;15.82;12.52;;;;;;;2.85;89.05;93805.97;5108609;28;20062;-66
2024/01/18 07:41:32;;;;;;;25.02;16.92;;;;;;;2.92;89.53;93804.59;5108258;28;20040;-67
2024/01/18 07:43:57;;;;;;;19.33;13.23;;;;;;;3.31;87.69;93797.63;5092729;28;20524;-67
2024/01/18 07:46:23;;;;;;;21.50;14.80;;;;;;;3.11;89.95;93775.94;5111192;28;20043;-66
2024/01/18 07:48:48;;;;;;;22.65;14.57;;;;;;;3.11;89.89;93761.34;5093071;28;20414;-67
2024/01/18 07:51:14;;;;;;;19.30;14.32;;;;;;;3.18;90.36;93763.50;5109943;28;20036;-67
2024/01/18 07:53:39;;;;;;;27.52;17.67;;;;;;;3.28;89.63;93743.94;5093041;28;20049;-67
2024/01/18 07:56:04;;;;;;;33.25;20.60;;;;;;;3.39;88.98;93750.88;5109697;28;20060;-67
2024/01/18 07:58:30;;;;;;;29.63;20.38;;;;;;;3.06;88.98;93699.25;5111165;28;20019;-66
2024/01/18 08:00:55;;;;;;;28.92;19.30;;;;;;;3.22;89.28;93728.97;5109836;28;20482;-66
2024/01/18 08:03:21;;;;;;;33.67;26.02;;;;;;;3.18;90.15;93712.16;5092866;28;20034;-67
2024/01/18 08:05:46;;;;;;;34.75;28.38;;;;;;;3.34;90.20;93728.94;5111206;28;20537;-67
2024/01/18 08:08:12;;;;;;;31.15;23.17;;;;;;;3.37;91.02;93725.28;5111111;28;20020;-67
2024/01/18 08:10:37;;;;;;;28.60;20.13;;;;;;;2.95;91.67;93670.16;5110887;28;20023;-67
2024/01/18 08:13:03;;;;;;;27.20;20.73;;;;;;;3.40;92.92;93716.56;5109756;28;20022;-66
2024/01/18 08:15:29;;;;;;;51.05;32.65;;;;;;;3.64;92.48;93707.06;5109615;28;20060;-67
2024/01/18 08:17:54;;;;;;;56.25;32.03;;;;;;;3.51;92.37;93696.91;5110976;28;20486;-67
2024/01/18 08:20:20;;;;;;;51.97;31.27;;;;;;;3.57;92.71;93708.47;5109647;28;20285;-67
2024/01/18 08:22:45;;;;;;;52.38;34.33;;;;;;;3.72;92.35;93720.19;5087702;28;20534;-66
2024/01/18 08:25:11;;;;;;;51.13;31.13;;;;;;;3.72;92.58;93716.78;5098055;28;20042;-67
2024/01/18 08:27:40;;;;;;;39.80;27.10;;;;;;;3.86;91.67;93720.91;5086798;28;20027;-66
2024/01/18 08:30:06;;;;;;;41.08;24.17;;;;;;;3.76;91.88;93723.31;5109259;28;20376;-67
2024/01/18 08:32:34;;;;;;;39.13;23.25;;;;;;;4.09;91.85;93729.47;5110394;28;20072;-68
2024/01/18 08:35:01;;;;;;;31.13;23.23;;;;;;;4.14;90.74;93717.09;5109407;28;20051;-67
2024/01/18 08:37:26;;;;;;;31.95;20.88;;;;;;;4.24;90.20;93720.63;5110690;28;20073;-68
2024/01/18 08:39:52;;;;;;;32.78;22.02;;;;;;;4.15;89.40;93729.88;5110652;28;20433;-67
2024/01/18 08:42:17;;;;;;;27.95;18.67;;;;;;;4.14;88.99;93733.34;5109394;28;20644;-71
2024/01/18 08:44:46;;;;;;;28.40;19.63;;;;;;;4.34;87.75;93744.69;5108994;28;20039;-67
2024/01/18 08:47:14;;;;;;;26.65;18.30;;;;;;;4.32;88.05;93741.44;5072327;28;20035;-67
2024/01/18 08:49:40;;;;;;;22.95;16.45;;;;;;;4.36;87.67;93742.84;5109278;28;20020;-67
2024/01/18 08:52:05;;;;;;;25.48;15.95;;;;;;;4.16;88.01;93740.97;5110800;28;20024;-67
2024/01/18 08:54:31;;;;;;;23.58;16.38;;;;;;;4.33;88.43;93732.78;5092279;28;20417;-67
2024/01/18 08:56:57;;;;;;;23.52;16.13;;;;;;;4.43;87.77;93726.03;5109477;28;20493;-66
2024/01/18 08:59:23;;;;;;;24.92;15.95;;;;;;;4.43;87.72;93705.44;5111851;28;20038;-67
2024/01/18 09:01:48;;;;;;;20.65;14.90;;;;;;;4.44;88.11;93719.94;5114503;28;20089;-67
2024/01/18 09:04:14;;;;;;;20.70;13.93;;;;;;;4.43;88.42;93718.31;5113279;28;20055;-68
2024/01/18 09:06:39;;;;;;;20.85;14.45;;;;;;;4.43;87.77;93732.91;5111137;28;20028;-67
2024/01/18 09:09:09;;;;;;;22.38;14.48;;;;;;;4.68;86.66;93721.56;5116321;27;20035;-67
2024/01/18 09:11:35;;;;;;;24.52;13.77;;;;;;;4.47;87.17;93714.56;5094353;28;20039;-67
2024/01/18 09:14:01;;;;;;;20.60;14.23;;;;;;;4.66;87.60;93713.97;5109354;28;20062;-67
2024/01/18 09:16:27;;;;;;;21.23;13.82;;;;;;;4.63;87.88;93697.97;5112007;28;20035;-67
2024/01/18 09:18:52;;;;;;;17.73;13.50;;;;;;;4.67;87.64;93713.03;5110180;28;20028;-67
2024/01/18 09:21:18;;;;;;;23.13;13.48;;;;;;;4.79;87.67;93719.00;5111274;28;20557;-67
2024/01/18 09:23:43;;;;;;;20.30;14.05;;;;;;;4.92;86.01;93722.22;5094783;28;20024;-68
2024/01/18 09:26:09;;;;;;;26.60;17.05;;;;;;;5.01;86.03;93727.59;5113036;28;20059;-68
2024/01/18 09:28:34;;;;;;;17.88;13.55;;;;;;;4.61;86.59;93668.97;5112383;28;20019;-67
2024/01/18 09:31:00;;;;;;;20.27;13.98;;;;;;;4.97;86.65;93714.16;5113881;28;20520;-67
2024/01/18 09:33:25;;;;;;;21.65;15.18;;;;;;;5.05;85.97;93700.69;5112469;28;20019;-67
2024/01/18 09:35:52;;;;;;;20.90;13.73;;;;;;;5.32;86.65;93700.25;5111141;28;20056;-67
2024/01/18 09:38:18;;;;;;;19.67;14.02;;;;;;;5.38;86.28;93692.88;5113471;28;20028;-67
2024/01/18 09:40:44;;;;;;;19.45;13.63;;;;;;;5.55;85.64;93682.97;5095480;28;20061;-67
2024/01/18 09:43:10;;;;;;;17.95;12.63;;;;;;;5.74;85.60;93657.34;5112177;28;20016;-68
2024/01/18 09:45:39;;;;;;;22.27;15.27;;;;;;;5.83;85.67;93638.53;5095304;28;20413;-67
2024/01/18 09:48:05;;;;;;;20.38;14.27;;;;;;;6.22;83.14;93651.66;5095571;28;20088;-67
2024/01/18 09:50:32;;;;;;;18.80;13.77;;;;;;;6.30;83.41;93643.28;5113369;28;20043;-67
2024/01/18 09:52:57;;;;;;;22.98;14.90;;;;;;;6.50;82.07;93631.25;5095130;28;20176;-67
2024/01/18 09:55:23;;;;;;;20.25;14.38;;;;;;;6.84;80.08;93633.50;5078243;28;20035;-67
2024/01/18 09:57:49;;;;;;;21.48;14.25;;;;;;;6.76;79.77;93621.25;5111919;28;20027;-68
2024/01/18 10:00:19;;;;;;;19.15;14.00;;;;;;;7.15;79.29;93621.31;5094813;28;20044;-67
2024/01/18 10:02:44;;;;;;;20.98;15.68;;;;;;;7.40;79.09;93609.63;5112230;28;20016;-67
2024/01/18 10:05:11;;;;;;;21.65;14.55;;;;;;;7.37;79.40;93604.72;5111668;28;20098;-67
2024/01/18 10:07:37;;;;;;;20.48;14.68;;;;;;;7.64;77.35;93610.97;5112778;28;20028;-68
2024/01/18 10:10:03;;;;;;;20.15;14.18;;;;;;;8.01;75.99;93609.22;5111205;28;20031;-67
2024/01/18 10:12:31;;;;;;;17.25;13.23;;;;;;;8.14;74.72;93587.44;5112746;28;20148;-68
2024/01/18 10:14:56;;;;;;;23.95;14.60;;;;;;;8.19;76.50;93572.25;5112740;28;20111;-68
2024/01/18 10:17:22;;;;;;;18.27;13.40;;;;;;;8.17;76.44;93558.69;5094500;28;20496;-67
2024/01/18 10:19:57;;;;;;;20.73;14.02;;;;;;;8.58;75.50;93554.00;5111474;28;20043;-68
2024/01/18 10:22:23;;;;;;;18.25;13.65;;;;;;;8.63;74.51;93547.41;5111345;28;20023;-67
2024/01/18 10:24:49;;;;;;;18.80;13.93;;;;;;;9.08;73.40;93531.03;5112528;28;20031;-67
2024/01/18 10:27:15;;;;;;;20.10;14.90;;;;;;;9.24;74.89;93522.56;5077408;28;20060;-67
2024/01/18 10:29:40;;;;;;;21.77;16.10;;;;;;;9.45;75.05;93519.66;5077477;28;20396;-68
2024/01/18 10:32:08;;;;;;;20.95;14.48;;;;;;;9.87;74.60;93518.13;5077242;28;20152;-67
2024/01/18 10:34:35;;;;;;;16.50;12.30;;;;;;;10.09;74.50;93519.38;5111117;28;20026;-67
2024/01/18 10:37:00;;;;;;;10.90;6.28;;;;;;;10.38;73.82;93530.19;5111115;28;20472;-68
2024/01/18 10:39:26;;;;;;;10.80;6.50;;;;;;;10.81;70.96;93510.22;5112339;28;20205;-67
2024/01/18 10:41:51;;;;;;;11.98;8.55;;;;;;;11.02;71.25;93512.34;5112176;28;20406;-67
2024/01/18 10:44:17;;;;;;;8.85;5.95;;;;;;;11.33;69.04;93503.88;5111061;28;20035;-68
2024/01/18 10:46:43;;;;;;;4.30;2.90;;;;;;;12.12;63.95;93489.31;5077303;28;20042;-67
2024/01/18 10:49:08;;;;;;;8.30;3.63;;;;;;;12.62;63.85;93515.91;5093927;28;20111;-68
2024/01/18 10:51:38;;;;;;;4.07;2.85;;;;;;;12.83;62.80;93495.28;5110988;28;20039;-68
2024/01/18 10:54:08;;;;;;;3.70;2.00;;;;;;;13.31;60.57;93484.72;5111135;28;20031;-67
2024/01/18 10:56:34;;;;;;;4.10;1.73;;;;;;;13.78;57.99;93487.06;5094383;28;20039;-67
2024/01/18 10:59:00;;;;;;;3.28;1.83;;;;;;;14.24;56.97;93466.00;5110944;28;20042;-68
2024/01/18 11:01:25;;;;;;;3.13;1.80;;;;;;;14.27;58.88;93491.75;5110857;28;20409;-68
2024/01/18 11:03:51;;;;;;;3.95;2.47;;;;;;;14.17;57.40;93493.81;5110697;28;20024;-68
2024/01/18 11:06:16;;;;;;;4.18;2.75;;;;;;;14.27;56.36;93470.84;5110676;28;20031;-68
2024/01/18 11:08:42;;;;;;;5.47;2.88;;;;;;;14.25;57.08;93467.59;5093697;28;20043;-68
2024/01/18 11:11:07;;;;;;;4.40;3.17;;;;;;;14.44;57.08;93465.44;5093581;28;20027;-68
2024/01/18 11:13:33;;;;;;;3.97;3.00;;;;;;;14.58;56.18;93455.97;5111742;28;20023;-68
2024/01/18 11:15:58;;;;;;;8.80;4.28;;;;;;;14.65;55.87;93446.38;5093487;28;20032;-68
2024/01/18 11:18:24;;;;;;;2.42;1.75;;;;;;;14.67;54.51;93431.34;5110473;28;20425;-67
2024/01/18 11:21:21;;;;;;;5.10;2.90;;;;;;;14.70;55.71;93439.59;5111082;28;20024;-67